Time;durP1;ratioP1;P1;durP2;ratioP2;P2;SDS_P1;SDS_P2;PMS_P1;PMS_P2;Temp;Humidity;BMP_temperature;BMP_pressure;BME280_temperature;BME280_humidity;BME280_pressure;Samples;Min_cycle;Max_cycle;Signal;HPM_P1;HPM_P2
2023/08/13 00:01:26;;;;;;;;;1.00;1.00;;;;;28.28;42.40;101633.28;5078512;27;45432;-72
2023/08/13 00:03:51;;;;;;;;;2.00;1.00;;;;;28.29;42.61;101633.06;5078574;27;45547;-72
2023/08/13 00:06:17;;;;;;;;;1.00;1.00;;;;;28.29;42.80;101633.06;5078294;27;45364;-72
2023/08/13 00:08:42;;;;;;;;;1.00;1.00;;;;;28.28;42.63;101625.25;5078437;27;45346;-72
2023/08/13 00:11:11;;;;;;;;;1.00;1.00;;;;;28.21;42.78;101619.88;5078689;27;45230;-71
2023/08/13 00:13:37;;;;;;;;;1.67;0.67;;;;;28.28;42.37;101633.28;5078380;27;46338;-72
2023/08/13 00:16:03;;;;;;;;;1.00;1.00;;;;;28.27;42.60;101632.47;5078291;28;45440;-71
2023/08/13 00:18:29;;;;;;;;;1.00;0.00;;;;;28.28;42.54;101631.44;5078425;27;45401;-71
2023/08/13 00:20:54;;;;;;;;;1.00;1.00;;;;;28.28;42.64;101628.78;5077951;28;45368;-71
2023/08/13 00:23:20;;;;;;;;;1.00;1.00;;;;;28.28;42.88;101628.78;5078273;27;47153;-72
2023/08/13 00:25:45;;;;;;;;;0.67;0.67;;;;;28.28;42.29;101625.25;5078234;27;45234;-72
2023/08/13 00:28:10;;;;;;;;;0.67;0.67;;;;;28.27;42.20;101621.75;5078179;27;45261;-72
2023/08/13 00:30:36;;;;;;;;;1.00;1.00;;;;;28.28;42.72;101622.59;5077437;28;45380;-72
2023/08/13 00:33:01;;;;;;;;;0.67;0.00;;;;;28.14;42.54;101592.31;5078159;27;46020;-71
2023/08/13 00:35:26;;;;;;;;;1.00;1.00;;;;;28.21;42.43;101597.69;5077765;28;45364;-72
2023/08/13 00:37:52;;;;;;;;;0.67;0.67;;;;;28.25;42.53;101606.94;5078279;27;45224;-71
2023/08/13 00:40:17;;;;;;;;;0.33;0.33;;;;;28.28;42.68;101615.38;5059903;28;45465;-71
2023/08/13 00:42:43;;;;;;;;;2.00;0.00;;;;;28.27;42.51;101612.91;5077950;27;45226;-71
2023/08/13 00:45:09;;;;;;;;;0.00;0.00;;;;;28.27;42.60;101604.88;5078049;28;45222;-72
2023/08/13 00:47:36;;;;;;;;;0.00;0.00;;;;;28.28;42.23;101610.03;5078097;28;45407;-72
2023/08/13 00:50:04;;;;;;;;;2.00;1.00;;;;;28.28;42.69;101609.22;5059271;28;45583;-71
2023/08/13 00:52:29;;;;;;;;;1.00;1.00;;;;;28.25;42.32;101598.91;5077613;27;46939;-72
2023/08/13 00:54:55;;;;;;;;;0.00;0.00;;;;;28.27;42.70;101600.34;5077750;28;45369;-71
2023/08/13 00:57:20;;;;;;;;;2.33;1.33;;;;;28.26;42.18;101603.25;5078037;28;45399;-71
2023/08/13 00:59:47;;;;;;;;;0.00;0.00;;;;;28.25;42.66;101606.94;5077722;27;45531;-71
2023/08/13 01:02:13;;;;;;;;;1.00;1.00;;;;;28.20;42.45;101590.66;5077149;27;46942;-71
2023/08/13 01:04:38;;;;;;;;;1.33;1.33;;;;;28.20;42.85;101596.84;5077519;28;45352;-71
2023/08/13 01:07:29;;;;;;;;;3.00;1.00;;;;;28.26;42.74;101608.59;5077779;27;45258;-71
2023/08/13 01:10:19;;;;;;;;;2.00;1.00;;;;;28.24;42.71;101606.09;5068842;27;45497;-71
2023/08/13 01:12:58;;;;;;;;;1.00;1.00;;;;;28.21;42.25;101597.69;5077305;28;45426;-71
2023/08/13 01:15:30;;;;;;;;;2.33;2.33;;;;;28.26;42.11;101608.59;5077292;28;45408;-71
2023/08/13 01:17:56;;;;;;;;;1.33;1.33;;;;;28.21;42.38;101592.34;5077120;27;45371;-71
2023/08/13 01:20:34;;;;;;;;;1.00;1.00;;;;;28.26;42.91;101605.91;5077389;27;45535;-71
2023/08/13 01:22:59;;;;;;;;;0.00;0.00;;;;;28.18;42.38;101588.22;5077237;28;47424;-71
2023/08/13 01:25:28;;;;;;;;;1.00;1.00;;;;;28.13;42.56;101583.44;5077215;28;45384;-71
2023/08/13 01:28:12;;;;;;;;;0.33;0.33;;;;;28.25;42.25;101596.22;5077274;28;45305;-72
2023/08/13 01:30:44;;;;;;;;;1.33;1.00;;;;;28.24;42.63;101602.59;5077431;28;45581;-71
2023/08/13 01:33:18;;;;;;;;;1.67;0.67;;;;;28.20;42.03;101588.00;5076781;27;46174;-71
2023/08/13 01:35:44;;;;;;;;;0.00;0.00;;;;;28.25;42.06;101596.22;5077179;28;45278;-72
2023/08/13 01:38:11;;;;;;;;;0.33;0.33;;;;;28.24;42.31;101592.72;5077203;28;45325;-71
2023/08/13 01:40:36;;;;;;;;;1.00;1.00;;;;;28.16;42.34;101579.53;5059055;28;45270;-71
2023/08/13 01:43:01;;;;;;;;;0.00;0.00;;;;;28.24;42.01;101595.41;5076661;27;45961;-71
2023/08/13 01:45:27;;;;;;;;;1.67;1.00;;;;;28.24;42.13;101581.19;5077081;28;45304;-71
2023/08/13 01:47:52;;;;;;;;;1.00;1.00;;;;;28.22;42.20;101581.41;5076819;28;45264;-71
2023/08/13 01:50:18;;;;;;;;;0.00;0.00;;;;;28.22;42.63;101577.91;5076949;27;45372;-71
2023/08/13 01:52:43;;;;;;;;;1.00;1.00;;;;;28.23;42.37;101584.91;5076427;28;47295;-71
2023/08/13 01:55:09;;;;;;;;;0.00;0.00;;;;;28.23;42.55;101593.78;5077023;28;45404;-71
2023/08/13 01:57:35;;;;;;;;;1.67;1.00;;;;;28.21;42.56;101598.47;5077022;28;45428;-71
2023/08/13 02:00:00;;;;;;;;;1.00;1.00;;;;;28.22;42.70;101600.13;5076404;28;50903;-72
2023/08/13 02:02:25;;;;;;;;;1.00;1.00;;;;;28.18;42.30;101585.53;5076137;28;46083;-72
2023/08/13 02:04:51;;;;;;;;;2.33;1.33;;;;;28.23;42.63;101598.28;5076610;28;45344;-71
2023/08/13 02:07:16;;;;;;;;;0.00;0.00;;;;;28.23;42.36;101588.41;5058730;28;45409;-71
2023/08/13 02:09:41;;;;;;;;;2.00;1.00;;;;;28.24;42.21;101579.34;5058235;28;45725;-71
2023/08/13 02:12:07;;;;;;;;;1.00;1.00;;;;;28.24;42.53;101589.22;5076567;28;45838;-71
2023/08/13 02:14:32;;;;;;;;;0.00;0.00;;;;;28.24;42.84;101578.53;5076611;28;45360;-71
2023/08/13 02:17:01;;;;;;;;;1.00;1.00;;;;;28.23;42.69;101576.88;5076283;28;45474;-72
2023/08/13 02:19:26;;;;;;;;;0.67;0.67;;;;;28.22;42.35;101580.59;5076561;28;45399;-71
2023/08/13 02:21:51;;;;;;;;;1.00;1.00;;;;;28.11;42.14;101563.28;5076298;27;46244;-71
2023/08/13 02:24:17;;;;;;;;;1.00;1.00;;;;;28.21;42.58;101582.44;5076459;28;45218;-72
2023/08/13 02:26:42;;;;;;;;;1.00;1.00;;;;;28.18;42.68;101575.63;5076560;28;45287;-71
2023/08/13 02:29:08;;;;;;;;;0.00;0.00;;;;;28.22;42.19;101578.75;5076570;27;45368;-71
2023/08/13 02:31:33;;;;;;;;;2.00;0.00;;;;;28.22;42.86;101580.59;5075911;28;45750;-71
2023/08/13 02:33:58;;;;;;;;;2.00;0.33;;;;;28.20;42.80;101574.63;5076393;28;45345;-71
2023/08/13 02:36:24;;;;;;;;;1.33;0.33;;;;;28.22;42.34;101572.56;5076402;28;45363;-71
2023/08/13 02:38:49;;;;;;;;;0.67;0.67;;;;;28.20;42.24;101567.44;5076192;28;45510;-71
2023/08/13 02:41:14;;;;;;;;;1.00;1.00;;;;;28.21;42.22;101568.25;5076185;28;45973;-71
2023/08/13 02:43:51;;;;;;;;;1.00;1.00;;;;;28.22;42.80;101577.91;5076112;28;45347;-71
2023/08/13 02:46:16;;;;;;;;;1.00;1.00;;;;;28.20;42.58;101570.09;5076420;27;45854;-71
2023/08/13 02:48:42;;;;;;;;;1.00;1.00;;;;;28.22;42.43;101568.03;5076055;28;45375;-71
2023/08/13 02:51:07;;;;;;;;;2.00;2.00;;;;;28.21;42.55;101563.69;5075992;28;46252;-71
2023/08/13 02:53:32;;;;;;;;;1.00;1.00;;;;;28.21;42.84;101563.69;5075291;28;45634;-71
2023/08/13 02:55:58;;;;;;;;;2.00;2.00;;;;;28.21;42.77;101560.22;5075980;28;45421;-71
2023/08/13 02:58:23;;;;;;;;;1.00;1.00;;;;;28.21;42.78;101560.22;5075469;28;45598;-71
2023/08/13 03:00:48;;;;;;;;;1.33;1.33;;;;;28.22;42.50;101554.66;5075669;28;52638;-71
2023/08/13 03:03:14;;;;;;;;;1.00;1.00;;;;;28.21;42.85;101557.56;5075726;27;45373;-71
2023/08/13 03:05:39;;;;;;;;;1.00;1.00;;;;;28.20;42.52;101551.38;5075674;27;48632;-71
2023/08/13 03:08:04;;;;;;;;;2.00;2.00;;;;;28.23;42.75;101559.00;5075916;27;45358;-71
2023/08/13 03:10:30;;;;;;;;;0.00;0.00;;;;;28.23;42.25;101560.84;5057573;28;47050;-71
2023/08/13 03:12:55;;;;;;;;;1.00;1.00;;;;;28.20;42.34;101554.03;5075529;28;45457;-71
2023/08/13 03:15:21;;;;;;;;;1.67;1.00;;;;;28.20;42.33;101546.03;5075946;28;45382;-72
2023/08/13 03:17:46;;;;;;;;;1.00;1.00;;;;;28.21;42.73;101547.66;5075754;28;45344;-71
2023/08/13 03:20:11;;;;;;;;;1.00;1.00;;;;;28.18;42.28;101545.41;5075760;28;45514;-71
2023/08/13 03:22:37;;;;;;;;;0.67;0.67;;;;;28.22;42.61;101546.63;5075636;27;45443;-71
2023/08/13 03:25:03;;;;;;;;;1.00;1.00;;;;;28.23;42.22;101544.78;5075831;28;45454;-71
2023/08/13 03:27:28;;;;;;;;;1.00;1.00;;;;;28.24;42.17;101546.41;5075185;27;45391;-71
2023/08/13 03:29:54;;;;;;;;;1.00;1.00;;;;;28.22;42.25;101551.97;5075640;28;45395;-71
2023/08/13 03:32:20;;;;;;;;;1.00;0.67;;;;;28.17;42.51;101544.56;5075569;28;45494;-71
2023/08/13 03:34:45;;;;;;;;;1.00;1.00;;;;;28.21;42.19;101553.00;5075481;27;45325;-71
2023/08/13 03:37:10;;;;;;;;;1.67;1.00;;;;;28.22;42.57;101548.47;5075667;28;45287;-71
2023/08/13 03:39:36;;;;;;;;;2.00;2.00;;;;;28.13;42.45;101543.31;5075271;27;46106;-71
2023/08/13 03:42:01;;;;;;;;;2.00;0.33;;;;;28.23;42.57;101556.31;5074943;27;48325;-71
2023/08/13 03:44:26;;;;;;;;;2.00;1.00;;;;;28.16;42.71;101542.09;5075696;27;45434;-71
2023/08/13 03:46:52;;;;;;;;;3.33;1.00;;;;;28.12;42.38;101531.00;5075510;28;45324;-71
2023/08/13 03:49:17;;;;;;;;;2.67;0.33;;;;;28.23;42.52;101555.50;5075286;28;47015;-71
2023/08/13 03:51:42;;;;;;;;;1.00;1.00;;;;;28.21;42.52;101549.53;5075112;27;45388;-71
2023/08/13 03:54:08;;;;;;;;;1.00;1.00;;;;;28.23;42.57;101550.13;5075483;28;45286;-71
2023/08/13 03:56:34;;;;;;;;;1.00;1.00;;;;;28.22;42.38;101556.50;5074924;28;45566;-72
2023/08/13 03:58:59;;;;;;;;;1.00;1.00;;;;;28.21;42.79;101550.31;5075114;27;46939;-72
2023/08/13 04:01:24;;;;;;;;;2.00;0.67;;;;;28.10;42.57;101533.06;5075199;28;45425;-72
2023/08/13 04:03:50;;;;;;;;;1.00;1.00;;;;;28.17;42.38;101546.44;5075287;28;45483;-72
2023/08/13 04:06:15;;;;;;;;;0.33;0.33;;;;;28.20;42.04;101551.38;5077261;28;45395;-72
2023/08/13 04:08:40;;;;;;;;;0.67;0.67;;;;;28.14;42.27;101539.63;5060109;27;46861;-72
2023/08/13 04:11:06;;;;;;;;;0.00;0.00;;;;;28.19;42.62;101552.38;5078291;27;45300;-72
2023/08/13 04:13:31;;;;;;;;;1.00;1.00;;;;;28.21;42.15;101552.19;5078588;28;45272;-72
2023/08/13 04:15:56;;;;;;;;;0.00;0.00;;;;;28.21;42.17;101558.34;5078623;28;45357;-72
2023/08/13 04:18:21;;;;;;;;;1.00;1.00;;;;;28.16;42.43;101548.28;5078442;27;45297;-71
2023/08/13 04:20:47;;;;;;;;;0.00;0.00;;;;;28.21;42.70;101555.69;5078322;27;45441;-70
2023/08/13 04:23:12;;;;;;;;;1.00;1.00;;;;;28.19;42.41;101552.38;5078358;27;45345;-72
2023/08/13 04:25:38;;;;;;;;;1.00;1.00;;;;;28.21;42.51;101546.84;5078137;27;45447;-71
2023/08/13 04:28:04;;;;;;;;;0.67;0.67;;;;;28.20;42.66;101554.03;5077814;28;46492;-71
2023/08/13 04:30:29;;;;;;;;;0.67;0.00;;;;;28.20;42.28;101545.19;5078289;28;45375;-71
2023/08/13 04:32:56;;;;;;;;;1.00;1.00;;;;;28.17;42.12;101551.78;5078227;28;45427;-71
2023/08/13 04:35:24;;;;;;;;;2.00;1.00;;;;;28.21;42.86;101555.69;5078324;27;45331;-71
2023/08/13 04:37:50;;;;;;;;;1.00;1.00;;;;;28.14;42.29;101536.97;5077922;27;46923;-71
2023/08/13 04:40:16;;;;;;;;;1.00;1.00;;;;;28.21;42.41;101544.19;5077551;27;45347;-71
2023/08/13 04:42:42;;;;;;;;;1.00;1.00;;;;;28.10;42.58;101532.22;5077922;28;45312;-71
2023/08/13 04:45:08;;;;;;;;;2.00;0.00;;;;;28.21;42.42;101541.50;5078205;28;45394;-71
2023/08/13 04:47:33;;;;;;;;;2.00;0.33;;;;;28.16;42.88;101537.56;5077945;27;45423;-71
2023/08/13 04:49:59;;;;;;;;;0.67;0.67;;;;;28.20;42.15;101551.38;5078065;27;45414;-71
2023/08/13 04:52:24;;;;;;;;;2.00;1.00;;;;;28.17;42.72;101543.75;5077725;28;45851;-71
2023/08/13 04:54:49;;;;;;;;;1.00;1.00;;;;;28.17;42.33;101547.25;5077560;28;45503;-71
2023/08/13 04:57:15;;;;;;;;;1.00;1.00;;;;;28.20;42.53;101553.22;5077708;28;47157;-71
2023/08/13 04:59:40;;;;;;;;;1.00;1.00;;;;;28.19;42.85;101552.38;5077647;28;45418;-71
2023/08/13 05:02:05;;;;;;;;;2.00;1.00;;;;;28.18;42.71;101551.56;5077823;28;45449;-71
2023/08/13 05:04:31;;;;;;;;;1.00;1.00;;;;;28.15;42.45;101548.50;5077749;28;45348;-71
2023/08/13 05:06:57;;;;;;;;;0.00;0.00;;;;;28.14;42.48;101538.81;5059489;28;46063;-71
2023/08/13 05:09:22;;;;;;;;;2.00;1.00;;;;;28.18;42.04;101554.22;5077135;27;45514;-72
2023/08/13 05:11:47;;;;;;;;;1.00;1.00;;;;;28.11;42.32;101536.53;5077700;28;45339;-71
2023/08/13 05:14:13;;;;;;;;;0.00;0.00;;;;;28.13;42.25;101540.66;5077758;27;45282;-71
2023/08/13 05:16:38;;;;;;;;;1.00;1.00;;;;;28.18;42.30;101548.09;5076783;28;46377;-71
2023/08/13 05:19:03;;;;;;;;;1.00;1.00;;;;;28.18;42.11;101556.91;5077349;27;45515;-71
2023/08/13 05:21:29;;;;;;;;;3.00;1.00;;;;;28.20;42.56;101553.22;5077365;27;45318;-71
2023/08/13 05:23:54;;;;;;;;;1.00;0.00;;;;;28.19;42.06;101552.38;5077150;28;45475;-71
2023/08/13 05:26:20;;;;;;;;;1.00;1.00;;;;;28.11;42.13;101544.56;5077315;28;45986;-71
2023/08/13 05:28:45;;;;;;;;;1.00;1.00;;;;;28.13;42.28;101554.03;5076976;27;45344;-71
2023/08/13 05:31:11;;;;;;;;;0.00;0.00;;;;;28.20;42.27;101564.75;5059243;28;45257;-72
2023/08/13 05:33:36;;;;;;;;;1.67;1.67;;;;;28.16;42.83;101544.78;5077367;28;45335;-71
2023/08/13 05:36:02;;;;;;;;;0.33;0.00;;;;;28.09;42.42;101535.91;5077273;28;45287;-71
2023/08/13 05:38:27;;;;;;;;;1.00;1.00;;;;;28.15;42.15;101551.16;5076815;28;45291;-71
2023/08/13 05:40:53;;;;;;;;;1.00;1.00;;;;;28.20;42.79;101553.22;5077243;27;45175;-72
2023/08/13 05:43:18;;;;;;;;;2.00;2.00;;;;;28.19;42.32;101549.72;5077127;28;45309;-71
2023/08/13 05:45:44;;;;;;;;;0.00;0.00;;;;;28.21;42.59;101544.19;5076870;27;46050;-72
2023/08/13 05:48:09;;;;;;;;;1.00;1.00;;;;;28.22;42.28;101553.84;5076946;27;45324;-72
2023/08/13 05:50:34;;;;;;;;;1.00;1.00;;;;;28.12;42.60;101538.19;5077159;27;45918;-71
2023/08/13 05:53:00;;;;;;;;;1.00;1.00;;;;;28.15;41.94;101543.13;5076391;27;45381;-71
2023/08/13 05:55:25;;;;;;;;;0.00;0.00;;;;;28.21;42.54;101547.66;5076786;28;47359;-71
2023/08/13 05:57:50;;;;;;;;;1.00;1.00;;;;;28.21;42.22;101552.19;5076804;28;45426;-71
2023/08/13 06:00:16;;;;;;;;;1.00;0.33;;;;;28.23;42.35;101550.13;5077010;28;45344;-72
2023/08/13 06:02:42;;;;;;;;;2.00;0.00;;;;;28.24;41.97;101555.28;5076742;28;45432;-71
2023/08/13 06:05:08;;;;;;;;;0.00;0.00;;;;;28.16;42.59;101540.25;5076677;28;45572;-71
2023/08/13 06:07:34;;;;;;;;;1.67;1.00;;;;;28.25;42.55;101550.75;5076227;27;45428;-71
2023/08/13 06:10:00;;;;;;;;;3.00;1.67;;;;;28.26;42.10;101552.41;5076603;27;45387;-71
2023/08/13 06:12:25;;;;;;;;;1.00;1.00;;;;;28.24;42.33;101549.09;5076699;27;45488;-71
2023/08/13 06:14:50;;;;;;;;;0.33;0.33;;;;;28.15;42.61;101527.91;5076488;28;46033;-71
2023/08/13 06:17:16;;;;;;;;;0.33;0.33;;;;;28.27;42.01;101560.22;5058379;28;46070;-71
2023/08/13 06:19:42;;;;;;;;;1.00;1.00;;;;;28.26;42.21;101563.13;5076788;28;45337;-72
2023/08/13 06:22:08;;;;;;;;;1.00;1.00;;;;;28.18;42.16;101545.41;5076165;27;45472;-71
2023/08/13 06:24:33;;;;;;;;;1.33;0.33;;;;;28.30;42.66;101569.69;5076441;28;46177;-71
2023/08/13 06:26:59;;;;;;;;;0.67;0.67;;;;;28.28;41.99;101563.72;5076396;27;45387;-72
2023/08/13 06:29:24;;;;;;;;;0.33;0.33;;;;;28.24;42.06;101551.75;5057188;28;45502;-72
2023/08/13 06:31:49;;;;;;;;;1.00;1.00;;;;;28.28;42.19;101553.84;5058356;27;45515;-71
2023/08/13 06:34:15;;;;;;;;;0.00;0.00;;;;;28.29;42.50;101557.31;5058104;28;46774;-71
2023/08/13 06:36:40;;;;;;;;;1.00;1.00;;;;;28.29;42.26;101552.81;5075891;28;45389;-71
2023/08/13 06:39:05;;;;;;;;;0.00;0.00;;;;;28.31;42.57;101563.31;5076357;28;45385;-72
2023/08/13 06:41:31;;;;;;;;;1.00;1.00;;;;;28.14;41.73;101544.97;5076165;28;45368;-72
2023/08/13 06:43:56;;;;;;;;;1.00;1.00;;;;;28.30;42.54;101569.69;5076136;28;46163;-72
2023/08/13 06:46:22;;;;;;;;;1.00;1.00;;;;;28.28;42.39;101564.56;5076177;28;45343;-71
2023/08/13 06:48:48;;;;;;;;;1.00;1.00;;;;;28.31;42.09;101574.03;5076175;28;45360;-71
2023/08/13 06:51:13;;;;;;;;;0.33;0.33;;;;;28.31;42.10;101573.19;5076028;28;45399;-71
2023/08/13 06:53:38;;;;;;;;;0.00;0.00;;;;;28.29;41.81;101571.53;5075728;27;45353;-71
2023/08/13 06:56:05;;;;;;;;;2.00;0.67;;;;;28.26;41.92;101563.13;5076023;27;45386;-71
2023/08/13 06:58:31;;;;;;;;;2.33;1.00;;;;;28.28;42.33;101572.56;5076024;27;45405;-71
2023/08/13 07:00:56;;;;;;;;;1.33;1.33;;;;;28.23;42.42;101563.50;5076006;28;45196;-71
2023/08/13 07:03:21;;;;;;;;;0.67;0.33;;;;;28.28;42.09;101569.06;5075667;28;47171;-71
2023/08/13 07:05:47;;;;;;;;;2.00;1.00;;;;;28.28;42.02;101577.94;5075401;28;47295;-71
2023/08/13 07:08:12;;;;;;;;;1.00;1.00;;;;;28.27;42.32;101573.59;5075952;28;45574;-71
2023/08/13 07:10:38;;;;;;;;;0.67;0.33;;;;;28.28;42.03;101566.41;5076014;27;45417;-71
2023/08/13 07:13:04;;;;;;;;;1.67;1.00;;;;;28.28;42.15;101569.06;5075868;28;45375;-71
2023/08/13 07:15:29;;;;;;;;;1.00;0.67;;;;;28.33;42.17;101579.16;5075737;27;45526;-71
2023/08/13 07:17:55;;;;;;;;;1.00;1.00;;;;;28.33;42.44;101568.44;5075939;28;45414;-71
2023/08/13 07:20:20;;;;;;;;;1.33;1.33;;;;;28.34;42.15;101578.13;5075446;28;45431;-71
2023/08/13 07:22:47;;;;;;;;;1.00;1.00;;;;;28.33;41.92;101579.97;5075727;27;45374;-71
2023/08/13 07:25:13;;;;;;;;;1.67;1.67;;;;;28.34;42.33;101573.59;5075703;27;45422;-71
2023/08/13 07:27:40;;;;;;;;;2.00;2.00;;;;;28.28;42.43;101564.56;5075460;28;45470;-71
2023/08/13 07:30:07;;;;;;;;;1.00;0.00;;;;;28.32;42.10;101564.13;5075701;28;45351;-71
2023/08/13 07:32:37;;;;;;;;;1.00;1.00;;;;;28.36;42.05;101576.06;5075424;28;46264;-71
2023/08/13 07:35:04;;;;;;;;;1.00;1.00;;;;;28.36;41.78;101568.88;5075192;28;45344;-71
2023/08/13 07:37:29;;;;;;;;;3.00;1.33;;;;;28.36;42.55;101576.91;5075631;28;45475;-71
2023/08/13 07:39:56;;;;;;;;;1.00;1.00;;;;;28.37;42.36;101578.53;5077063;28;45384;-72
2023/08/13 07:42:21;;;;;;;;;2.00;1.00;;;;;28.28;42.38;101561.03;5078849;28;45963;-71
2023/08/13 07:44:47;;;;;;;;;0.00;0.00;;;;;28.38;42.31;101574.00;5078762;27;45245;-71
2023/08/13 07:47:13;;;;;;;;;0.33;0.33;;;;;28.37;42.07;101567.81;5079159;28;45311;-71
2023/08/13 07:49:38;;;;;;;;;1.33;0.00;;;;;28.38;42.42;101579.34;5078674;27;45258;-71
2023/08/13 07:52:04;;;;;;;;;1.00;1.00;;;;;28.38;41.88;101574.00;5078434;28;46924;-71
2023/08/13 07:54:29;;;;;;;;;1.00;1.00;;;;;28.39;42.06;101562.28;5078670;28;45378;-71
2023/08/13 07:56:55;;;;;;;;;0.33;0.33;;;;;28.38;42.03;101560.63;5078898;27;45446;-71
2023/08/13 07:59:20;;;;;;;;;0.00;0.00;;;;;28.37;42.11;101570.50;5078836;28;45391;-71
2023/08/13 08:01:45;;;;;;;;;1.00;1.00;;;;;28.38;41.83;101563.31;5078569;27;46553;-72
2023/08/13 08:04:10;;;;;;;;;1.00;1.00;;;;;28.32;41.85;101551.56;5078203;27;45372;-71
2023/08/13 08:06:37;;;;;;;;;0.00;0.00;;;;;28.42;42.11;101569.06;5078903;27;45357;-76
2023/08/13 08:09:03;;;;;;;;;1.00;1.00;;;;;28.39;42.35;101568.44;5078470;27;45591;-76
2023/08/13 08:11:28;;;;;;;;;1.00;1.00;;;;;28.36;42.55;101560.84;5078249;27;47644;-76
2023/08/13 08:13:53;;;;;;;;;0.33;0.33;;;;;28.36;42.40;101558.16;5078477;27;45536;-76
2023/08/13 08:16:19;;;;;;;;;0.33;0.33;;;;;28.42;42.42;101566.41;5078620;27;45360;-76
2023/08/13 08:18:44;;;;;;;;;2.00;0.00;;;;;28.38;41.92;101553.44;5078056;28;45558;-76
2023/08/13 08:21:09;;;;;;;;;1.00;1.00;;;;;28.39;41.45;101555.06;5078306;27;45457;-77
2023/08/13 08:23:35;;;;;;;;;2.00;0.00;;;;;28.38;41.90;101556.09;5078519;27;45396;-76
2023/08/13 08:26:00;;;;;;;;;1.00;1.00;;;;;28.38;41.95;101558.78;5078534;28;45343;-76
2023/08/13 08:28:26;;;;;;;;;0.67;0.67;;;;;28.39;41.88;101565.75;5078152;27;45389;-76
2023/08/13 08:30:51;;;;;;;;;0.33;0.33;;;;;28.42;41.69;101563.72;5078245;27;46207;-76
2023/08/13 08:33:17;;;;;;;;;1.00;1.00;;;;;28.35;41.72;101556.50;5078231;28;45356;-76
2023/08/13 08:35:42;;;;;;;;;1.00;1.00;;;;;28.38;42.21;101560.63;5078345;27;45449;-76
2023/08/13 08:38:07;;;;;;;;;1.00;1.00;;;;;28.37;41.98;101556.28;5078048;27;45403;-76
2023/08/13 08:40:33;;;;;;;;;0.00;0.00;;;;;28.42;42.25;101561.84;5077463;28;45710;-76
2023/08/13 08:42:58;;;;;;;;;0.00;0.00;;;;;28.33;41.93;101544.38;5077826;28;45395;-75
2023/08/13 08:45:24;;;;;;;;;1.00;1.00;;;;;28.43;42.16;101546.63;5078137;27;45865;-76
2023/08/13 08:47:51;;;;;;;;;2.00;0.00;;;;;28.44;42.07;101548.28;5077719;27;45248;-76
2023/08/13 08:50:17;;;;;;;;;0.00;0.00;;;;;28.48;41.57;101547.69;5077922;27;45651;-76
2023/08/13 08:52:43;;;;;;;;;1.33;1.33;;;;;28.42;42.11;101539.63;5076864;28;45465;-76
2023/08/13 08:55:11;;;;;;;;;0.00;0.00;;;;;28.44;42.09;101535.72;5078100;27;45395;-76
2023/08/13 08:57:38;;;;;;;;;0.67;0.33;;;;;28.50;42.25;101545.63;5077941;27;45237;-76
2023/08/13 09:00:04;;;;;;;;;1.00;0.00;;;;;28.47;42.07;101539.88;5076394;27;46151;-76
2023/08/13 09:02:30;;;;;;;;;0.00;0.00;;;;;28.52;41.83;101540.06;5077227;27;45421;-75
2023/08/13 09:04:56;;;;;;;;;1.00;1.00;;;;;28.51;41.93;101538.41;5077739;27;45341;-76
2023/08/13 09:07:30;;;;;;;;;1.00;0.00;;;;;28.50;41.98;101540.25;5077769;27;45638;-76
2023/08/13 09:09:56;;;;;;;;;1.00;1.00;;;;;28.53;42.30;101541.69;5077180;27;46263;-76
2023/08/13 09:12:21;;;;;;;;;1.00;1.00;;;;;28.54;41.65;101542.53;5059091;28;45405;-76
2023/08/13 09:14:46;;;;;;;;;2.00;1.00;;;;;28.53;41.74;101541.69;5077368;28;45304;-76
2023/08/13 09:17:12;;;;;;;;;0.00;0.00;;;;;28.53;41.98;101533.66;5058387;28;45500;-76
2023/08/13 09:19:37;;;;;;;;;1.00;1.00;;;;;28.58;42.30;101541.06;5077177;27;46598;-76
2023/08/13 09:22:03;;;;;;;;;1.00;1.00;;;;;28.58;42.16;101539.22;5077290;28;45404;-76
2023/08/13 09:24:35;;;;;;;;;0.33;0.33;;;;;28.60;41.39;101542.50;5059569;28;45361;-76
2023/08/13 09:27:02;;;;;;;;;0.33;0.33;;;;;28.58;42.01;101533.03;5077206;28;45540;-76
2023/08/13 09:29:29;;;;;;;;;1.00;1.00;;;;;28.58;41.70;101538.38;5076755;27;45516;-76
2023/08/13 09:31:56;;;;;;;;;0.00;0.00;;;;;28.59;41.77;101540.03;5076441;27;45474;-76
2023/08/13 09:34:21;;;;;;;;;1.00;1.00;;;;;28.57;41.69;101539.44;5077374;27;45351;-76
2023/08/13 09:36:47;;;;;;;;;0.00;0.00;;;;;28.55;42.09;101528.94;5077376;27;45394;-76
2023/08/13 09:39:12;;;;;;;;;2.00;2.00;;;;;28.51;41.95;101525.84;5058466;28;46659;-76
2023/08/13 09:41:37;;;;;;;;;1.67;0.00;;;;;28.58;42.13;101525.84;5058725;28;45367;-76
2023/08/13 09:44:09;;;;;;;;;1.00;1.00;;;;;28.56;41.86;101519.03;5059079;28;45401;-76
2023/08/13 09:46:36;;;;;;;;;0.00;0.00;;;;;28.58;41.98;101519.66;5075955;28;45450;-76
2023/08/13 09:49:09;;;;;;;;;1.00;1.00;;;;;28.56;41.54;101508.34;5076245;27;46625;-76
2023/08/13 09:51:38;;;;;;;;;1.00;1.00;;;;;28.62;42.10;101508.31;5076075;27;45395;-76
2023/08/13 09:54:42;;;;;;;;;0.00;0.00;;;;;28.62;41.85;101496.81;5076884;27;45241;-77
2023/08/13 09:57:14;;;;;;;;;2.00;1.00;;;;;28.65;41.87;101499.03;5059115;27;46189;-76
2023/08/13 09:59:41;;;;;;;;;1.00;1.00;;;;;28.66;41.74;101494.50;5076256;28;46292;-76
2023/08/13 10:02:07;;;;;;;;;0.00;0.00;;;;;28.66;41.66;101492.66;5075371;27;45265;-76
2023/08/13 10:04:34;;;;;;;;;1.00;1.00;;;;;28.68;41.51;101503.16;5075356;27;45308;-76
2023/08/13 10:07:00;;;;;;;;;0.00;0.00;;;;;28.60;41.64;101488.97;5076739;28;45285;-76
2023/08/13 10:09:26;;;;;;;;;1.00;1.00;;;;;28.65;42.24;101498.25;5076158;27;47537;-76
2023/08/13 10:11:52;;;;;;;;;1.00;1.00;;;;;28.63;41.90;101495.75;5076667;28;45405;-76
2023/08/13 10:14:18;;;;;;;;;0.00;0.00;;;;;28.66;41.50;101505.22;5057966;28;45390;-76
2023/08/13 10:16:45;;;;;;;;;0.00;0.00;;;;;28.64;41.99;101510.78;5075838;28;45458;-76
2023/08/13 10:19:11;;;;;;;;;0.00;0.00;;;;;28.63;41.84;101509.97;5058108;27;48129;-76
2023/08/13 10:21:37;;;;;;;;;1.33;0.00;;;;;28.66;41.78;101513.25;5075989;27;45380;-76
2023/08/13 10:24:05;;;;;;;;;0.00;0.00;;;;;28.69;41.36;101511.00;5076567;27;45350;-76
2023/08/13 10:26:31;;;;;;;;;4.00;1.00;;;;;28.62;41.50;101502.97;5076572;27;45406;-76
2023/08/13 10:28:56;;;;;;;;;1.00;1.00;;;;;28.63;41.74;101503.78;5075079;28;45474;-76
2023/08/13 10:31:29;;;;;;;;;0.00;0.00;;;;;28.64;42.03;101510.78;5058112;28;45446;-76
2023/08/13 10:34:00;;;;;;;;;2.00;1.00;;;;;28.65;42.20;101506.28;5076302;27;45400;-76
2023/08/13 10:36:42;;;;;;;;;1.00;1.00;;;;;28.67;41.48;101514.91;5058107;28;45409;-76
2023/08/13 10:39:29;;;;;;;;;1.00;1.00;;;;;28.70;41.71;101517.97;5057666;28;46687;-76
2023/08/13 10:41:54;;;;;;;;;0.00;0.00;;;;;28.66;41.53;101507.91;5057768;28;45395;-76
2023/08/13 10:44:31;;;;;;;;;0.00;0.00;;;;;28.70;41.52;101515.28;5057623;28;45419;-76
2023/08/13 10:46:57;;;;;;;;;0.33;0.33;;;;;28.69;41.64;101510.16;5076395;27;45293;-76
2023/08/13 10:49:24;;;;;;;;;1.00;1.00;;;;;28.64;41.69;101508.13;5074917;28;45288;-76
2023/08/13 10:51:50;;;;;;;;;1.00;1.00;;;;;28.56;41.53;101495.78;5057773;28;45508;-76
2023/08/13 10:54:17;;;;;;;;;0.00;0.00;;;;;28.65;41.62;101514.31;5075998;28;45388;-76
2023/08/13 10:56:42;;;;;;;;;0.00;0.00;;;;;28.65;41.63;101517.78;5074463;28;45496;-75
2023/08/13 10:59:08;;;;;;;;;0.00;0.00;;;;;28.68;41.89;101516.53;5075655;28;46530;-76
2023/08/13 11:01:34;;;;;;;;;0.67;0.67;;;;;28.63;41.43;101509.97;5057796;28;45516;-76
2023/08/13 11:04:03;;;;;;;;;1.00;1.00;;;;;28.67;41.52;101521.09;5076070;27;45571;-75
2023/08/13 11:06:28;;;;;;;;;0.33;0.33;;;;;28.67;41.47;101520.25;5076061;27;45581;-76
2023/08/13 11:08:55;;;;;;;;;0.33;0.00;;;;;28.60;41.69;101512.22;5075411;27;46127;-76
2023/08/13 11:11:20;;;;;;;;;1.00;1.00;;;;;28.63;41.79;101514.50;5075665;28;45368;-76
2023/08/13 11:13:47;;;;;;;;;1.00;1.00;;;;;28.66;41.82;101513.25;5074747;27;45384;-76
2023/08/13 11:16:13;;;;;;;;;0.00;0.00;;;;;28.66;42.11;101515.94;5079264;27;45392;-76
2023/08/13 11:18:39;;;;;;;;;0.00;0.00;;;;;28.66;41.80;101510.56;5060838;28;45997;-76
2023/08/13 11:21:04;;;;;;;;;1.00;1.00;;;;;28.62;41.84;101497.59;5079462;27;45306;-76